createdAt,value
2022-12-14T00:01:26.963Z,96974.25
2022-12-14T00:03:59.934Z,96965.81
2022-12-14T00:06:32.118Z,96962.53
2022-12-14T00:09:04.044Z,96967.53
2022-12-14T00:11:35.845Z,96969.22
2022-12-14T00:14:08.687Z,96980.09
2022-12-14T00:16:40.187Z,96960.72
2022-12-14T00:19:10.783Z,96965.72
2022-12-14T00:21:40.981Z,96965.09
2022-12-14T00:24:10.817Z,96956.75
2022-12-14T00:26:42.771Z,96950.88
2022-12-14T00:29:14.186Z,96954.19
2022-12-14T00:31:44.350Z,96946.78
2022-12-14T00:34:18.523Z,96957.66
2022-12-14T00:36:48.444Z,96951.03
2022-12-14T00:39:18.154Z,96951.06
2022-12-14T00:41:50.479Z,96943.50
2022-12-14T00:44:19.617Z,96934.94
2022-12-14T00:46:49.853Z,96942.56
2022-12-14T00:49:19.048Z,96935.97
2022-12-14T00:51:49.082Z,96929.25
2022-12-14T00:54:18.583Z,96931.59
2022-12-14T00:56:49.719Z,96923.28
2022-12-14T00:59:25.692Z,96917.53
2022-12-14T01:01:56.676Z,96909.06
2022-12-14T01:04:26.435Z,96908.25
2022-12-14T01:06:57.438Z,96920.03
2022-12-14T01:09:28.604Z,96925.94
2022-12-14T01:12:00.033Z,96927.56
2022-12-14T01:14:29.048Z,96935.13
2022-12-14T01:16:59.262Z,96941.81
2022-12-14T01:19:29.018Z,96952.66
2022-12-14T01:21:59.560Z,96955.16
2022-12-14T01:24:28.778Z,96946.00
2022-12-14T01:26:59.103Z,96961.16
2022-12-14T01:29:29.504Z,96961.00
2022-12-14T01:31:59.038Z,96950.00
2022-12-14T01:34:28.920Z,96957.75
2022-12-14T01:36:58.016Z,96952.88
2022-12-14T01:39:28.221Z,96947.88
2022-12-14T01:41:58.341Z,96942.91
2022-12-14T01:44:58.057Z,96935.38
2022-12-14T01:47:32.376Z,96923.69
2022-12-14T01:50:07.547Z,96921.19
2022-12-14T01:52:40.894Z,96900.09
2022-12-14T01:55:12.405Z,96909.41
2022-12-14T01:57:45.133Z,96904.38
2022-12-14T02:00:17.175Z,96895.19
2022-12-14T02:02:51.655Z,96873.34
2022-12-14T02:05:22.834Z,96904.47
2022-12-14T02:07:53.356Z,96903.59
2022-12-14T02:10:24.198Z,96896.00
2022-12-14T02:12:59.281Z,96898.69
2022-12-14T02:15:30.981Z,96895.28
2022-12-14T02:17:59.980Z,96908.69
2022-12-14T02:20:34.932Z,96892.06
2022-12-14T02:23:43.746Z,96893.56
2022-12-14T02:26:32.112Z,96890.25
2022-12-14T02:29:35.556Z,96893.59
2022-12-14T02:32:20.683Z,96887.72
2022-12-14T02:34:59.865Z,96889.50
2022-12-14T02:37:37.116Z,96886.78
2022-12-14T02:40:20.134Z,96889.38
2022-12-14T02:43:00.498Z,96881.97
2022-12-14T02:45:38.151Z,96880.34
2022-12-14T02:48:10.675Z,96865.22
2022-12-14T02:50:45.155Z,96855.22
2022-12-14T02:53:21.860Z,96835.03
2022-12-14T02:55:52.595Z,96842.59
2022-12-14T02:58:26.168Z,96835.88
2022-12-14T03:00:58.104Z,96825.78
2022-12-14T03:03:28.986Z,96829.97
2022-12-14T03:05:59.871Z,96840.09
2022-12-14T03:08:31.363Z,96829.22
2022-12-14T03:11:03.086Z,96818.34
2022-12-14T03:13:37.288Z,96813.16
2022-12-14T03:16:13.676Z,96815.78
2022-12-14T03:18:47.349Z,96810.78
2022-12-14T03:21:20.361Z,96805.84
2022-12-14T03:23:51.249Z,96803.25
2022-12-14T03:26:26.151Z,96804.91
2022-12-14T03:29:00.027Z,96807.47
2022-12-14T03:31:35.917Z,96806.72
2022-12-14T03:34:07.116Z,96810.84
2022-12-14T03:36:46.144Z,96810.88
2022-12-14T03:39:20.783Z,96800.75
2022-12-14T03:41:57.234Z,96800.84
2022-12-14T03:44:33.992Z,96792.50
2022-12-14T03:47:15.493Z,96787.38
2022-12-14T03:49:58.536Z,96783.25
2022-12-14T03:52:33.467Z,96777.31
2022-12-14T03:55:12.979Z,96765.56
2022-12-14T03:58:07.361Z,96778.13
2022-12-14T04:00:39.574Z,96788.94
2022-12-14T04:03:20.846Z,96784.72
2022-12-14T04:05:55.621Z,96782.22
2022-12-14T04:08:33.536Z,96768.84
2022-12-14T04:11:22.356Z,96753.66
2022-12-14T04:14:16.250Z,96772.19
2022-12-14T04:20:05.832Z,96773.91
2022-12-14T04:22:40.323Z,96774.72
2022-12-14T04:25:45.123Z,96769.72
2022-12-14T04:28:29.831Z,96756.28
2022-12-14T04:31:04.949Z,96767.19
2022-12-14T04:33:50.621Z,96764.69
2022-12-14T04:36:25.734Z,96758.88
2022-12-14T04:39:01.290Z,96757.25
2022-12-14T04:41:35.295Z,96752.19
2022-12-14T04:44:09.248Z,96744.63
2022-12-14T04:46:41.410Z,96747.19
2022-12-14T04:49:20.760Z,96728.78
2022-12-14T04:51:58.183Z,96720.31
2022-12-14T04:54:34.793Z,96711.94
2022-12-14T04:57:09.091Z,96708.53
2022-12-14T04:59:38.722Z,96712.72
2022-12-14T05:02:22.141Z,96718.63
2022-12-14T05:04:59.333Z,96708.63
2022-12-14T05:07:38.584Z,96708.63
2022-12-14T05:10:11.475Z,96685.94
2022-12-14T05:12:44.961Z,96680.13
2022-12-14T05:15:17.610Z,96685.97
2022-12-14T05:17:46.044Z,96694.31
2022-12-14T05:20:19.785Z,96701.84
2022-12-14T05:22:49.874Z,96692.59
2022-12-14T05:25:18.522Z,96682.53
2022-12-14T05:27:47.428Z,96681.66
2022-12-14T05:30:16.049Z,96678.31
2022-12-14T05:32:45.339Z,96668.31
2022-12-14T05:35:15.182Z,96667.50
2022-12-14T05:37:44.757Z,96658.31
2022-12-14T05:40:15.514Z,96673.50
2022-12-14T05:42:45.998Z,96666.00
2022-12-14T05:45:17.758Z,96653.50
2022-12-14T05:47:46.686Z,96643.47
2022-12-14T05:50:15.224Z,96644.31
2022-12-14T05:52:44.228Z,96644.34
2022-12-14T05:55:12.814Z,96646.00
2022-12-14T05:57:44.822Z,96648.56
2022-12-14T06:00:14.769Z,96633.47
2022-12-14T06:02:43.636Z,96655.31
2022-12-14T06:05:12.534Z,96641.91
2022-12-14T06:07:41.996Z,96642.00
2022-12-14T06:10:12.259Z,96641.16
2022-12-14T06:12:42.677Z,96644.47
2022-12-14T06:15:12.632Z,96638.69
2022-12-14T06:17:44.975Z,96650.47
2022-12-14T06:20:15.108Z,96650.44
2022-12-14T06:22:47.733Z,96631.13
2022-12-14T06:25:17.516Z,96644.59
2022-12-14T06:27:48.105Z,96632.03
2022-12-14T06:30:17.411Z,96631.22
2022-12-14T06:32:47.383Z,96630.38
2022-12-14T06:35:17.775Z,96609.41
2022-12-14T06:37:49.026Z,96607.81
2022-12-14T06:40:17.933Z,96597.69
2022-12-14T06:42:49.610Z,96617.00
2022-12-14T06:45:18.960Z,96620.44
2022-12-14T06:47:47.982Z,96626.22
2022-12-14T06:50:17.713Z,96609.47
2022-12-14T06:52:47.426Z,96617.84
2022-12-14T06:55:17.116Z,96629.63
2022-12-14T06:57:47.023Z,96617.91
2022-12-14T07:00:17.478Z,96605.34
2022-12-14T07:02:46.774Z,96611.22
2022-12-14T07:05:16.290Z,96612.94
2022-12-14T07:07:45.092Z,96613.81
2022-12-14T07:10:14.867Z,96611.28
2022-12-14T07:12:44.290Z,96624.75
2022-12-14T07:15:13.324Z,96605.50
2022-12-14T07:17:45.245Z,96589.56
2022-12-14T07:20:14.463Z,96564.41
2022-12-14T07:22:43.633Z,96557.72
2022-12-14T07:25:18.855Z,96565.28
2022-12-14T07:27:49.138Z,96582.03
2022-12-14T07:30:18.658Z,96568.66
2022-12-14T07:32:52.231Z,96587.13
2022-12-14T07:35:22.560Z,96583.72
2022-12-14T07:37:52.309Z,96566.94
2022-12-14T07:40:22.431Z,96577.03
2022-12-14T07:42:52.288Z,96585.38
2022-12-14T07:45:22.060Z,96589.63
2022-12-14T07:47:52.053Z,96582.06
2022-12-14T07:50:22.287Z,96595.50
2022-12-14T07:52:51.514Z,96601.38
2022-12-14T07:55:20.573Z,96589.69
2022-12-14T07:57:50.520Z,96578.75
2022-12-14T08:00:20.719Z,96580.44
2022-12-14T08:02:50.074Z,96569.59
2022-12-14T08:05:20.449Z,96561.22
2022-12-14T08:07:49.253Z,96557.88
2022-12-14T08:10:17.883Z,96562.13
2022-12-14T08:12:48.071Z,96581.41
2022-12-14T08:15:17.211Z,96575.53
2022-12-14T08:17:45.727Z,96585.59
2022-12-14T08:20:15.136Z,96548.69
2022-12-14T08:22:45.539Z,96554.59
2022-12-14T08:25:14.404Z,96543.69
2022-12-14T08:27:43.511Z,96548.72
2022-12-14T08:30:13.588Z,96537.00
2022-12-14T08:32:42.650Z,96532.81
2022-12-14T08:35:12.118Z,96523.63
2022-12-14T08:37:47.164Z,96530.31
2022-12-14T08:40:17.523Z,96527.81
2022-12-14T08:42:45.900Z,96509.38
2022-12-14T08:45:14.319Z,96511.88
2022-12-14T08:47:43.800Z,96500.97
2022-12-14T08:50:12.782Z,96501.84
2022-12-14T08:52:41.347Z,96474.16
2022-12-14T08:55:10.535Z,96464.94
2022-12-14T08:57:41.959Z,96459.94
2022-12-14T09:00:11.886Z,96462.44
2022-12-14T09:02:40.547Z,96461.59
2022-12-14T09:05:11.102Z,96466.63
2022-12-14T09:07:39.425Z,96459.09
2022-12-14T09:10:09.336Z,96447.34
2022-12-14T09:12:40.069Z,96449.88
2022-12-14T09:15:09.933Z,96479.22
2022-12-14T09:17:38.695Z,96491.78
2022-12-14T09:20:08.305Z,96497.63
2022-12-14T09:22:37.362Z,96480.88
2022-12-14T09:25:06.283Z,96464.13
2022-12-14T09:27:35.727Z,96476.69
2022-12-14T09:30:07.585Z,96464.09
2022-12-14T09:32:36.834Z,96459.09
2022-12-14T09:35:06.843Z,96438.97
2022-12-14T09:37:36.735Z,96434.78
2022-12-14T09:40:06.514Z,96432.25
2022-12-14T09:42:53.166Z,96439.81
2022-12-14T09:45:31.951Z,96453.22
2022-12-14T09:48:10.222Z,96454.91
2022-12-14T09:50:41.124Z,96459.94
2022-12-14T09:53:14.941Z,96458.25
2022-12-14T09:55:44.668Z,96462.44
2022-12-14T09:58:20.349Z,96458.25
2022-12-14T10:00:57.738Z,96447.34
2022-12-14T10:03:45.296Z,96454.06
2022-12-14T10:06:32.926Z,96459.94
2022-12-14T10:09:11.665Z,96475.81
2022-12-14T10:11:50.753Z,96471.59
2022-12-14T10:14:27.483Z,96477.41
2022-12-14T10:17:06.058Z,96479.91
2022-12-14T10:19:40.875Z,96462.31
2022-12-14T10:22:16.271Z,96463.97
2022-12-14T10:24:49.760Z,96468.19
2022-12-14T10:27:23.559Z,96456.47
2022-12-14T10:30:04.244Z,96416.22
2022-12-14T10:32:37.456Z,96429.66
2022-12-14T10:35:28.568Z,96412.09
2022-12-14T10:38:03.102Z,96393.66
2022-12-14T10:40:34.982Z,96387.78
2022-12-14T10:43:23.066Z,96378.56
2022-12-14T10:45:59.757Z,96389.47
2022-12-14T10:48:46.517Z,96388.63
2022-12-14T10:51:21.482Z,96391.19
2022-12-14T10:53:54.586Z,96393.69
2022-12-14T10:56:29.904Z,96365.19
2022-12-14T10:59:40.756Z,96361.00
2022-12-14T11:02:20.279Z,96350.97
2022-12-14T11:04:53.003Z,96349.25
2022-12-14T11:07:23.281Z,96354.28
2022-12-14T11:09:51.862Z,96348.44
2022-12-14T11:12:24.442Z,96355.16
2022-12-14T11:14:56.126Z,96347.59
2022-12-14T11:17:38.116Z,96345.91
2022-12-14T11:20:23.063Z,96341.72
2022-12-14T11:22:55.014Z,96353.41
2022-12-14T11:25:33.563Z,96351.72
2022-12-14T11:28:07.310Z,96356.75
2022-12-14T11:30:37.947Z,96354.19
2022-12-14T11:33:07.411Z,96355.03
2022-12-14T11:35:38.385Z,96341.66
2022-12-14T11:38:07.583Z,96336.63
2022-12-14T11:40:38.524Z,96343.38
2022-12-14T11:43:07.933Z,96325.78
2022-12-14T11:45:38.832Z,96332.47
2022-12-14T11:48:22.791Z,96342.50
2022-12-14T11:50:56.418Z,96340.81
2022-12-14T11:53:25.189Z,96341.69
2022-12-14T11:55:57.783Z,96334.09
2022-12-14T11:58:30.287Z,96333.25
2022-12-14T12:01:04.987Z,96336.59
2022-12-14T12:03:42.297Z,96330.75
2022-12-14T12:06:16.086Z,96339.19
2022-12-14T12:08:46.702Z,96340.00
2022-12-14T12:11:20.203Z,96340.03
2022-12-14T12:13:53.594Z,96347.53
2022-12-14T12:16:25.522Z,96339.16
2022-12-14T12:19:05.263Z,96328.31
2022-12-14T12:21:43.313Z,96344.22
2022-12-14T12:24:21.500Z,96335.03
2022-12-14T12:26:53.454Z,96335.81
2022-12-14T12:29:32.053Z,96328.28
2022-12-14T12:32:13.561Z,96339.16
2022-12-14T12:34:49.534Z,96326.59
2022-12-14T12:37:27.400Z,96313.97
2022-12-14T12:40:03.805Z,96319.84
2022-12-14T12:42:41.936Z,96308.16
2022-12-14T12:45:22.243Z,96298.91
2022-12-14T12:47:56.998Z,96317.34
2022-12-14T12:50:31.388Z,96320.72
2022-12-14T12:53:04.972Z,96322.38
2022-12-14T12:55:39.960Z,96319.91
2022-12-14T12:58:17.091Z,96311.50
2022-12-14T13:00:51.739Z,96311.53
2022-12-14T13:03:24.688Z,96299.72
2022-12-14T13:05:56.100Z,96308.94
2022-12-14T13:08:33.515Z,96315.63
2022-12-14T13:11:25.623Z,96308.06
2022-12-14T13:13:59.714Z,96320.59
2022-12-14T13:16:37.124Z,96309.72
2022-12-14T13:22:06.631Z,96313.00
2022-12-14T13:24:38.620Z,96300.56
2022-12-14T13:27:33.038Z,96308.91
2022-12-14T13:30:22.641Z,96309.75
2022-12-14T13:33:24.373Z,96303.06
2022-12-14T13:36:20.484Z,96313.94
2022-12-14T13:39:04.049Z,96319.75
2022-12-14T13:41:42.738Z,96320.56
2022-12-14T13:44:37.450Z,96312.19
2022-12-14T13:47:17.480Z,96313.91
2022-12-14T13:52:47.842Z,96328.16
2022-12-14T13:55:33.893Z,96338.22
2022-12-14T13:58:19.227Z,96327.34
2022-12-14T14:01:02.552Z,96333.22
2022-12-14T14:03:54.688Z,96338.25
2022-12-14T14:06:37.512Z,96344.91
2022-12-14T14:09:43.058Z,96349.97
2022-12-14T14:12:44.048Z,96350.81
2022-12-14T14:22:27.496Z,96357.56
2022-12-14T14:25:01.908Z,96345.81
2022-12-14T14:27:37.670Z,96333.25
2022-12-14T14:30:24.266Z,96354.16
2022-12-14T14:33:07.530Z,96339.97
2022-12-14T14:35:42.019Z,96343.31
2022-12-14T14:38:26.464Z,96345.00
2022-12-14T14:41:15.942Z,96346.69
2022-12-14T14:43:54.150Z,96338.28
2022-12-14T14:46:34.634Z,96337.47
2022-12-14T14:49:06.962Z,96345.00
2022-12-14T14:51:39.505Z,96343.34
2022-12-14T14:55:16.305Z,96350.88
2022-12-14T14:57:56.946Z,96365.13
2022-12-14T15:00:26.268Z,96349.22
2022-12-14T15:02:57.412Z,96360.09
2022-12-14T15:05:42.105Z,96364.25
2022-12-14T15:08:21.381Z,96358.44
2022-12-14T15:10:54.176Z,96359.25
2022-12-14T15:13:26.790Z,96361.78
2022-12-14T15:15:56.750Z,96359.31
2022-12-14T15:18:28.224Z,96369.34
2022-12-14T15:21:02.294Z,96375.22
2022-12-14T15:23:37.537Z,96387.78
2022-12-14T15:26:16.592Z,96391.97
2022-12-14T15:28:49.439Z,96394.47
2022-12-14T15:31:18.215Z,96392.00
2022-12-14T15:33:49.282Z,96385.28
2022-12-14T15:36:22.213Z,96387.81
2022-12-14T15:38:55.212Z,96386.16
2022-12-14T15:41:26.291Z,96395.34
2022-12-14T15:43:59.604Z,96393.69
2022-12-14T15:46:31.998Z,96386.13
2022-12-14T15:49:04.071Z,96391.16
2022-12-14T15:51:37.654Z,96395.38
2022-12-14T15:54:08.897Z,96390.31
2022-12-14T15:56:41.192Z,96396.19
2022-12-14T15:59:18.642Z,96406.28
2022-12-14T16:01:56.776Z,96403.75
2022-12-14T16:04:29.394Z,96416.31
2022-12-14T16:07:09.096Z,96413.81
2022-12-14T16:09:50.485Z,96430.59
2022-12-14T16:12:29.032Z,96433.06
2022-12-14T16:14:59.808Z,96430.59
2022-12-14T16:17:32.770Z,96428.91
2022-12-14T16:20:03.831Z,96441.47
2022-12-14T16:22:34.821Z,96441.47
2022-12-14T16:25:19.294Z,96441.47
2022-12-14T16:27:50.730Z,96444.84
2022-12-14T16:30:25.838Z,96444.81
2022-12-14T16:33:07.640Z,96448.19
2022-12-14T16:35:39.196Z,96454.03
2022-12-14T16:38:13.715Z,96441.47
2022-12-14T16:40:45.188Z,96454.91
2022-12-14T16:43:29.369Z,96464.94
2022-12-14T16:46:15.275Z,96462.44
2022-12-14T16:48:50.377Z,96471.66
2022-12-14T16:51:58.759Z,96471.66
2022-12-14T16:54:28.827Z,96461.59
2022-12-14T16:57:01.319Z,96468.31
2022-12-14T16:59:37.764Z,96476.69
2022-12-14T17:02:11.633Z,96471.69
2022-12-14T17:04:44.079Z,96476.69
2022-12-14T17:07:17.450Z,96472.50
2022-12-14T17:09:50.158Z,96469.16
2022-12-14T17:12:21.707Z,96473.34
2022-12-14T17:14:51.023Z,96479.22
2022-12-14T17:17:24.607Z,96473.34
2022-12-14T17:19:54.086Z,96474.19
2022-12-14T17:22:26.679Z,96483.41
2022-12-14T17:24:57.906Z,96489.28
2022-12-14T17:27:27.850Z,96489.28
2022-12-14T17:29:57.975Z,96495.16
2022-12-14T17:32:31.674Z,96501.03
2022-12-14T17:35:00.505Z,96498.50
2022-12-14T17:37:35.945Z,96494.31
2022-12-14T17:40:09.128Z,96510.25
2022-12-14T17:42:41.422Z,96503.53
2022-12-14T17:45:20.408Z,96511.09
2022-12-14T17:47:49.649Z,96514.47
2022-12-14T17:50:21.934Z,96521.16
2022-12-14T17:52:51.433Z,96529.56
2022-12-14T17:55:24.708Z,96528.72
2022-12-14T17:57:54.327Z,96519.47
2022-12-14T18:00:42.115Z,96537.09
2022-12-14T18:03:12.186Z,96535.41
2022-12-14T18:05:48.011Z,96548.03
2022-12-14T18:08:17.427Z,96559.75
2022-12-14T18:10:48.483Z,96558.91
2022-12-14T18:13:17.797Z,96555.56
2022-12-14T18:15:50.829Z,96546.31
2022-12-14T18:18:20.260Z,96559.75
2022-12-14T18:20:54.107Z,96565.63
2022-12-14T18:23:23.180Z,96568.09
2022-12-14T18:25:54.727Z,96558.91
2022-12-14T18:28:23.608Z,96551.31
2022-12-14T18:30:58.338Z,96565.56
2022-12-14T18:33:29.004Z,96552.16
2022-12-14T18:35:59.125Z,96567.25
2022-12-14T18:38:28.629Z,96560.53
2022-12-14T18:41:01.872Z,96573.13
2022-12-14T18:43:31.773Z,96571.44
2022-12-14T18:46:01.848Z,96550.47
2022-12-14T18:48:31.798Z,96580.63
2022-12-14T18:51:01.094Z,96588.19
2022-12-14T18:53:30.573Z,96584.78
2022-12-14T18:56:02.279Z,96587.25
2022-12-14T18:58:31.357Z,96587.31
2022-12-14T19:01:03.130Z,96590.69
2022-12-14T19:03:36.673Z,96591.50
2022-12-14T19:06:42.395Z,96597.38
2022-12-14T19:08:57.442Z,96600.75
2022-12-14T19:11:32.669Z,96603.25
2022-12-14T19:14:02.439Z,96614.16
2022-12-14T19:16:31.658Z,96601.53
2022-12-14T19:19:02.225Z,96600.75
2022-12-14T19:21:32.072Z,96599.88
2022-12-14T19:24:01.085Z,96611.63
2022-12-14T19:26:33.178Z,96622.56
2022-12-14T19:29:02.252Z,96607.38
2022-12-14T19:31:31.379Z,96620.00
2022-12-14T19:34:01.244Z,96620.84
2022-12-14T19:36:30.439Z,96624.22
2022-12-14T19:39:01.208Z,96625.88
2022-12-14T19:41:33.480Z,96640.97
2022-12-14T19:44:03.161Z,96616.59
2022-12-14T19:46:32.122Z,96622.44
2022-12-14T19:49:02.632Z,96640.88
2022-12-14T19:51:31.725Z,96630.00
2022-12-14T19:54:02.002Z,96628.34
2022-12-14T19:56:33.125Z,96619.00
2022-12-14T19:59:04.313Z,96634.16
2022-12-14T20:01:39.644Z,96628.28
2022-12-14T20:04:11.170Z,96626.59
2022-12-14T20:06:40.812Z,96628.22
2022-12-14T20:09:10.407Z,96637.44
2022-12-14T20:11:42.118Z,96640.78
2022-12-14T20:14:12.626Z,96654.19
2022-12-14T20:16:41.969Z,96652.53
2022-12-14T20:19:15.542Z,96658.38
2022-12-14T20:21:44.268Z,96662.66
2022-12-14T20:24:13.161Z,96670.09
2022-12-14T20:26:43.595Z,96676.00
2022-12-14T20:29:13.070Z,96679.38
2022-12-14T20:31:42.497Z,96682.72
2022-12-14T20:34:11.880Z,96681.84
2022-12-14T20:36:41.927Z,96691.94
2022-12-14T20:39:12.058Z,96694.44
2022-12-14T20:41:42.228Z,96699.56
2022-12-14T20:44:15.732Z,96697.00
2022-12-14T20:46:46.574Z,96705.34
2022-12-14T20:49:18.584Z,96702.88
2022-12-14T20:51:49.902Z,96699.50
2022-12-14T20:54:24.646Z,96702.03
2022-12-14T20:56:53.945Z,96708.75
2022-12-14T20:59:27.110Z,96716.28
2022-12-14T21:01:57.556Z,96716.31
2022-12-14T21:04:26.371Z,96718.78
2022-12-14T21:06:54.943Z,96729.69
2022-12-14T21:09:24.446Z,96730.53
2022-12-14T21:12:10.751Z,96733.06
2022-12-14T21:14:45.136Z,96742.25
2022-12-14T21:17:17.124Z,96748.00
2022-12-14T21:19:46.653Z,96748.88
2022-12-14T21:22:17.896Z,96738.78
2022-12-14T21:25:06.050Z,96739.66
2022-12-14T21:27:38.718Z,96738.75
2022-12-14T21:30:11.992Z,96741.31
2022-12-14T21:32:42.033Z,96747.28
2022-12-14T21:35:14.370Z,96764.88
2022-12-14T21:37:44.285Z,96758.13
2022-12-14T21:40:34.538Z,96749.81
2022-12-14T21:43:02.661Z,96754.69
2022-12-14T21:45:38.718Z,96759.78
2022-12-14T21:48:08.416Z,96768.16
2022-12-14T21:50:38.044Z,96773.16
2022-12-14T21:53:06.964Z,96759.66
2022-12-14T21:55:39.164Z,96765.66
2022-12-14T21:58:18.373Z,96771.53
2022-12-14T22:00:48.497Z,96767.31
2022-12-14T22:03:17.605Z,96768.16
2022-12-14T22:05:46.111Z,96753.84
2022-12-14T22:08:17.041Z,96753.03
2022-12-14T22:10:46.938Z,96765.66
2022-12-14T22:13:16.066Z,96765.66
2022-12-14T22:15:45.253Z,96778.25
2022-12-14T22:18:19.234Z,96777.34
2022-12-14T22:20:48.038Z,96767.25
2022-12-14T22:23:17.238Z,96775.75
2022-12-14T22:25:51.356Z,96785.88
2022-12-14T22:28:20.128Z,96770.75
2022-12-14T22:30:48.847Z,96774.91
2022-12-14T22:33:18.755Z,96780.72
2022-12-14T22:35:48.272Z,96774.81
2022-12-14T22:38:16.749Z,96776.50
2022-12-14T22:40:45.264Z,96769.75
2022-12-14T22:43:14.573Z,96769.72
2022-12-14T22:45:43.288Z,96782.34
2022-12-14T22:48:11.596Z,96797.47
2022-12-14T22:50:41.813Z,96787.44
2022-12-14T22:53:10.451Z,96793.31
2022-12-14T22:55:40.151Z,96790.69
2022-12-14T22:58:12.866Z,96794.94
2022-12-14T23:00:41.617Z,96790.72
2022-12-14T23:03:10.394Z,96790.75
2022-12-14T23:05:41.155Z,96810.94
2022-12-14T23:08:09.771Z,96820.16
2022-12-14T23:10:56.030Z,96803.34
2022-12-14T23:13:41.888Z,96818.44
2022-12-14T23:16:27.864Z,96809.19
2022-12-14T23:19:14.181Z,96830.13
2022-12-14T23:22:01.647Z,96837.72
2022-12-14T23:24:47.168Z,96830.97
2022-12-14T23:27:33.250Z,96813.41
2022-12-14T23:30:21.738Z,96806.69
2022-12-14T23:33:07.876Z,96798.25
2022-12-14T23:35:53.904Z,96806.69
2022-12-14T23:38:41.191Z,96805.78
2022-12-14T23:41:27.083Z,96800.72
2022-12-14T23:44:14.904Z,96796.56
2022-12-14T23:47:01.581Z,96814.16
2022-12-14T23:49:47.695Z,96808.31
2022-12-14T23:52:33.773Z,96821.75
2022-12-14T23:55:21.187Z,96830.91
2022-12-14T23:58:06.963Z,96814.09
